Check out our new BloomSky Weather System.

Active alerts


No alerts


Thunder radar  blitzortung!


Rain radar more information rain snow radar


Visit our other weather sites:

Template documentation
and downloads

And another site



Weather Underground History page Text

Daily Summary for April 3, 2017 Units:  English    Metric   Both
« Previous Day
Next Day »
Daily Weekly Monthly Yearly Custom
  High: Low: Average:
Temperature: 85.8 °F 55.2 °F 71.1 °F
Dew Point: 65.7 °F 53.2 °F 57.7 °F
Humidity: 94 % 35 % 66 %
Wind Speed: 10.0 mph 0.0 mph 1.7 mph
Wind Gust: 15.0 mph - -
Wind:- - SW
Pressure: 29.78 in 29.67 in -
Precipitation: 0.00 in    
Historical Graphs
 
 
Tabular Data for April 3, 2017
Time Temperature Dew Point Pressure Wind Wind Speed Wind Gust Humidity Rainfall Rate (Hourly)
00:02 67.5 °F 65.7 °F 29.68 in Calm   2.0 mph 94 % 0.00 in
00:07 67.3 °F 65.5 °F 29.68 in Calm   1.0 mph 94 % 0.00 in
00:12 67.3 °F 65.5 °F 29.69 in Calm   2.0 mph 94 % 0.00 in
00:17 67.3 °F 65.1 °F 29.70 in Calm   4.0 mph 93 % 0.00 in
00:22 67.3 °F 65.1 °F 29.71 in SSW 1.0 mph 4.0 mph 93 % 0.00 in
00:27 67.3 °F 64.9 °F 29.71 in Calm   5.0 mph 92 % 0.00 in
00:32 67.5 °F 65.1 °F 29.73 in SW 2.0 mph 5.0 mph 92 % 0.00 in
00:37 67.5 °F 64.8 °F 29.73 in Calm   5.0 mph 91 % 0.00 in
00:42 67.3 °F 64.6 °F 29.73 in Calm   3.0 mph 91 % 0.00 in
00:47 67.3 °F 64.6 °F 29.74 in Calm   4.0 mph 91 % 0.00 in
00:52 67.3 °F 64.6 °F 29.74 in Calm   4.0 mph 91 % 0.00 in
00:57 67.1 °F 64.0 °F 29.73 in West 6.0 mph 6.0 mph 90 % 0.00 in
01:02 67.1 °F 63.5 °F 29.73 in WNW 1.0 mph 6.0 mph 88 % 0.00 in
01:07 67.3 °F 63.3 °F 29.71 in NNW 2.0 mph 6.0 mph 87 % 0.00 in
01:12 67.1 °F 63.1 °F 29.73 in WSW 1.0 mph 6.0 mph 87 % 0.00 in
01:17 67.1 °F 62.8 °F 29.73 in North 1.0 mph 6.0 mph 86 % 0.00 in
01:22 66.9 °F 62.2 °F 29.73 in SSW 1.0 mph 6.0 mph 85 % 0.00 in
01:27 66.7 °F 62.1 °F 29.73 in Calm   6.0 mph 85 % 0.00 in
01:32 66.6 °F 61.5 °F 29.73 in West 3.0 mph 7.0 mph 84 % 0.00 in
01:37 66.4 °F 61.3 °F 29.73 in WSW 5.0 mph 7.0 mph 84 % 0.00 in
01:42 66.4 °F 61.0 °F 29.74 in NNW 5.0 mph 9.0 mph 83 % 0.00 in
01:47 66.2 °F 60.8 °F 29.73 in SE 1.0 mph 9.0 mph 83 % 0.00 in
01:52 66.0 °F 60.6 °F 29.73 in WNW 2.0 mph 9.0 mph 83 % 0.00 in
01:57 66.0 °F 60.6 °F 29.73 in WSW 1.0 mph 9.0 mph 83 % 0.00 in
02:02 65.8 °F 60.6 °F 29.74 in SW 1.0 mph 9.0 mph 83 % 0.00 in
02:07 65.5 °F 60.3 °F 29.74 in West 2.0 mph 9.0 mph 83 % 0.00 in
02:12 65.1 °F 59.2 °F 29.74 in NW 4.0 mph 13.0 mph 81 % 0.00 in
02:17 64.9 °F 59.0 °F 29.74 in WNW 6.0 mph 13.0 mph 81 % 0.00 in
02:22 64.8 °F 58.8 °F 29.74 in North 5.0 mph 13.0 mph 81 % 0.00 in
02:27 64.6 °F 58.3 °F 29.74 in West 6.0 mph 8.0 mph 80 % 0.00 in
02:32 64.2 °F 57.6 °F 29.74 in West 1.0 mph 12.0 mph 79 % 0.00 in
02:33 64.2 °F 57.6 °F 29.73 in SW 2.0 mph 12.0 mph 79 % 0.00 in
02:38 63.9 °F 57.2 °F 29.73 in SW 3.0 mph 12.0 mph 79 % 0.00 in
02:43 63.5 °F 57.2 °F 29.73 in Calm   12.0 mph 80 % 0.00 in
02:48 63.1 °F 57.2 °F 29.73 in West 4.0 mph 9.0 mph 81 % 0.00 in
02:53 63.0 °F 57.0 °F 29.73 in West 1.0 mph 9.0 mph 81 % 0.00 in
02:58 62.8 °F 56.8 °F 29.71 in NW 1.0 mph 10.0 mph 81 % 0.00 in
03:04 62.4 °F 56.5 °F 29.72 in NW 1.0 mph 10.0 mph 81 % 0.00 in
03:05 62.4 °F 56.8 °F 29.72 in Calm   10.0 mph 82 % 0.00 in
03:10 62.2 °F 56.7 °F 29.72 in WSW 2.0 mph 10.0 mph 82 % 0.00 in
03:15 61.9 °F 56.7 °F 29.72 in WNW 4.0 mph 6.0 mph 83 % 0.00 in
03:20 61.7 °F 56.5 °F 29.73 in Calm   7.0 mph 83 % 0.00 in
03:25 61.3 °F 56.1 °F 29.73 in ENE 2.0 mph 7.0 mph 83 % 0.00 in
03:30 61.3 °F 56.5 °F 29.73 in West 3.0 mph 7.0 mph 84 % 0.00 in
03:35 61.0 °F 56.1 °F 29.73 in SSE 2.0 mph 6.0 mph 84 % 0.00 in
03:40 60.6 °F 55.8 °F 29.73 in SW 9.0 mph 9.0 mph 84 % 0.00 in
03:45 60.4 °F 55.2 °F 29.73 in WNW 3.0 mph 9.0 mph 83 % 0.00 in
03:50 60.3 °F 55.0 °F 29.73 in WSW 1.0 mph 9.0 mph 83 % 0.00 in
03:55 60.1 °F 54.9 °F 29.73 in SSW 2.0 mph 9.0 mph 83 % 0.00 in
04:00 59.7 °F 54.9 °F 29.73 in Calm   5.0 mph 84 % 0.00 in
04:05 59.4 °F 54.5 °F 29.72 in Calm   5.0 mph 84 % 0.00 in
04:10 59.2 °F 54.7 °F 29.72 in Calm   2.0 mph 85 % 0.00 in
04:15 58.8 °F 54.7 °F 29.72 in Calm   2.0 mph 86 % 0.00 in
04:20 58.6 °F 54.5 °F 29.72 in SW 1.0 mph 2.0 mph 86 % 0.00 in
04:25 58.5 °F 54.7 °F 29.72 in Calm   2.0 mph 87 % 0.00 in
04:30 58.3 °F 54.7 °F 29.72 in Calm   2.0 mph 88 % 0.00 in
04:35 57.9 °F 54.3 °F 29.72 in WNW 2.0 mph 2.0 mph 88 % 0.00 in
04:40 57.9 °F 54.3 °F 29.71 in Calm   2.0 mph 88 % 0.00 in
04:45 57.7 °F 54.1 °F 29.71 in SSE 1.0 mph 2.0 mph 88 % 0.00 in
04:51 57.7 °F 54.5 °F 29.71 in Calm   2.0 mph 89 % 0.00 in
04:56 57.7 °F 54.5 °F 29.71 in West 3.0 mph 3.0 mph 89 % 0.00 in
05:01 57.7 °F 54.5 °F 29.71 in Calm   4.0 mph 89 % 0.00 in
05:06 57.6 °F 54.3 °F 29.71 in Calm   4.0 mph 89 % 0.00 in
05:11 57.4 °F 54.1 °F 29.71 in Calm   4.0 mph 89 % 0.00 in
05:16 57.2 °F 54.3 °F 29.72 in Calm   2.0 mph 90 % 0.00 in
05:21 57.0 °F 54.1 °F 29.72 in West 1.0 mph 1.0 mph 90 % 0.00 in
05:26 57.0 °F 54.5 °F 29.73 in Calm   2.0 mph 91 % 0.00 in
05:30 57.0 °F 54.5 °F 29.73 in Calm   2.0 mph 91 % 0.00 in
05:35 57.0 °F 54.7 °F 29.73 in Calm   4.0 mph 92 % 0.00 in
05:40 57.0 °F 54.7 °F 29.74 in WSW 1.0 mph 4.0 mph 92 % 0.00 in
05:45 57.0 °F 54.7 °F 29.74 in WSW 1.0 mph 5.0 mph 92 % 0.00 in
05:50 57.0 °F 55.0 °F 29.74 in SW 3.0 mph 5.0 mph 93 % 0.00 in
05:55 57.0 °F 55.0 °F 29.74 in SSW 1.0 mph 5.0 mph 93 % 0.00 in
06:00 57.0 °F 55.0 °F 29.74 in NNW 1.0 mph 6.0 mph 93 % 0.00 in
06:05 57.0 °F 55.0 °F 29.74 in Calm   6.0 mph 93 % 0.00 in
06:10 57.0 °F 54.7 °F 29.75 in South 2.0 mph 6.0 mph 92 % 0.00 in
06:15 57.0 °F 54.7 °F 29.74 in WNW 2.0 mph 5.0 mph 92 % 0.00 in
06:20 56.8 °F 54.5 °F 29.75 in SE 1.0 mph 4.0 mph 92 % 0.00 in
06:25 56.8 °F 54.5 °F 29.74 in Calm   4.0 mph 92 % 0.00 in
06:30 56.7 °F 54.3 °F 29.75 in West 5.0 mph 5.0 mph 92 % 0.00 in
06:36 56.7 °F 54.3 °F 29.75 in Calm   5.0 mph 92 % 0.00 in
06:40 56.5 °F 54.1 °F 29.75 in Calm   5.0 mph 92 % 0.00 in
06:46 56.3 °F 54.0 °F 29.75 in SSW 1.0 mph 5.0 mph 92 % 0.00 in
06:51 56.3 °F 54.0 °F 29.75 in WNW 2.0 mph 4.0 mph 92 % 0.00 in
06:56 56.1 °F 53.8 °F 29.75 in Calm   3.0 mph 92 % 0.00 in
07:01 55.9 °F 53.6 °F 29.75 in Calm   2.0 mph 92 % 0.00 in
07:06 55.8 °F 53.4 °F 29.75 in WNW 2.0 mph 2.0 mph 92 % 0.00 in
07:11 55.8 °F 53.4 °F 29.75 in SW 1.0 mph 3.0 mph 92 % 0.00 in
07:16 55.6 °F 53.2 °F 29.76 in Calm   3.0 mph 92 % 0.00 in
07:21 55.6 °F 53.2 °F 29.76 in Calm   3.0 mph 92 % 0.00 in
07:26 55.6 °F 53.6 °F 29.76 in Calm   2.0 mph 93 % 0.00 in
07:31 55.6 °F 53.6 °F 29.76 in Calm   1.0 mph 93 % 0.00 in
07:36 55.4 °F 53.4 °F 29.76 in Calm   1.0 mph 93 % 0.00 in
07:41 55.2 °F 53.2 °F 29.76 in Calm   1.0 mph 93 % 0.00 in
07:46 55.2 °F 53.2 °F 29.76 in Calm   1.0 mph 93 % 0.00 in
07:51 55.6 °F 54.0 °F 29.76 in Calm   1.0 mph 94 % 0.00 in
07:56 56.5 °F 54.9 °F 29.77 in Calm   1.0 mph 94 % 0.00 in
08:01 57.4 °F 55.6 °F 29.77 in West 1.0 mph 1.0 mph 94 % 0.00 in
08:06 58.3 °F 56.3 °F 29.77 in Calm   1.0 mph 93 % 0.00 in
08:11 59.4 °F 57.4 °F 29.77 in Calm   1.0 mph 93 % 0.00 in
08:16 60.3 °F 57.4 °F 29.77 in Calm   1.0 mph 90 % 0.00 in
08:21 60.6 °F 57.4 °F 29.77 in WNW 1.0 mph 2.0 mph 89 % 0.00 in
08:26 61.3 °F 57.7 °F 29.77 in Calm   2.0 mph 88 % 0.00 in
08:31 61.9 °F 57.4 °F 29.77 in Calm   2.0 mph 85 % 0.00 in
08:36 62.1 °F 57.2 °F 29.77 in Calm   4.0 mph 84 % 0.00 in
08:41 62.6 °F 57.0 °F 29.78 in SSW 3.0 mph 4.0 mph 82 % 0.00 in
08:46 63.0 °F 56.7 °F 29.78 in WSW 1.0 mph 4.0 mph 80 % 0.00 in
08:51 63.7 °F 57.4 °F 29.78 in SSW 1.0 mph 4.0 mph 80 % 0.00 in
08:56 64.2 °F 57.2 °F 29.78 in Calm   3.0 mph 78 % 0.00 in
09:01 64.9 °F 57.6 °F 29.78 in SSW 3.0 mph 3.0 mph 77 % 0.00 in
09:02 65.1 °F 57.4 °F 29.78 in SSW 4.0 mph 4.0 mph 76 % 0.00 in
09:07 65.3 °F 56.8 °F 29.78 in SSW 3.0 mph 4.0 mph 74 % 0.00 in
09:12 65.7 °F 57.6 °F 29.78 in SW 2.0 mph 4.0 mph 75 % 0.00 in
09:17 65.7 °F 56.8 °F 29.78 in SW 3.0 mph 5.0 mph 73 % 0.00 in
09:22 65.8 °F 56.5 °F 29.78 in SSW 3.0 mph 6.0 mph 72 % 0.00 in
09:27 66.2 °F 56.1 °F 29.78 in South 3.0 mph 6.0 mph 70 % 0.00 in
09:32 66.9 °F 57.2 °F 29.78 in SSW 4.0 mph 6.0 mph 71 % 0.00 in
09:37 67.5 °F 57.0 °F 29.78 in Calm   5.0 mph 69 % 0.00 in
09:42 68.2 °F 57.6 °F 29.78 in SE 1.0 mph 5.0 mph 69 % 0.00 in
09:47 68.7 °F 57.7 °F 29.78 in SW 1.0 mph 4.0 mph 68 % 0.00 in
09:52 69.1 °F 57.2 °F 29.78 in SSW 3.0 mph 4.0 mph 66 % 0.00 in
09:57 69.3 °F 57.9 °F 29.78 in NW 1.0 mph 4.0 mph 67 % 0.00 in
10:02 69.4 °F 56.3 °F 29.77 in SW 2.0 mph 4.0 mph 63 % 0.00 in
10:07 70.0 °F 57.2 °F 29.78 in SW 1.0 mph 4.0 mph 64 % 0.00 in
10:12 70.3 °F 57.2 °F 29.78 in SSE 2.0 mph 4.0 mph 63 % 0.00 in
10:17 70.9 °F 56.8 °F 29.78 in SSW 1.0 mph 4.0 mph 61 % 0.00 in
10:22 71.4 °F 58.1 °F 29.77 in SW 1.0 mph 4.0 mph 63 % 0.00 in
10:27 71.6 °F 57.9 °F 29.78 in SSW 1.0 mph 4.0 mph 62 % 0.00 in
10:32 72.0 °F 57.4 °F 29.78 in SW 2.0 mph 4.0 mph 60 % 0.00 in
10:37 72.3 °F 59.0 °F 29.78 in SW 1.0 mph 4.0 mph 63 % 0.00 in
10:43 72.7 °F 57.0 °F 29.78 in South 2.0 mph 4.0 mph 58 % 0.00 in
10:48 72.9 °F 58.1 °F 29.78 in SW 6.0 mph 6.0 mph 60 % 0.00 in
10:53 72.7 °F 56.1 °F 29.78 in SSW 5.0 mph 8.0 mph 56 % 0.00 in
10:58 73.2 °F 59.4 °F 29.78 in SE 3.0 mph 8.0 mph 62 % 0.00 in
11:03 73.4 °F 57.2 °F 29.78 in South 1.0 mph 8.0 mph 57 % 0.00 in
11:08 73.6 °F 58.3 °F 29.78 in SW 5.0 mph 8.0 mph 59 % 0.00 in
11:13 74.1 °F 58.5 °F 29.78 in Calm   8.0 mph 58 % 0.00 in
11:18 74.5 °F 57.7 °F 29.78 in SSW 3.0 mph 8.0 mph 56 % 0.00 in
11:23 75.2 °F 59.4 °F 29.78 in SE 1.0 mph 7.0 mph 58 % 0.00 in
11:28 75.2 °F 56.8 °F 29.77 in SSW 3.0 mph 7.0 mph 53 % 0.00 in
11:33 75.4 °F 59.0 °F 29.77 in SSE 3.0 mph 8.0 mph 57 % 0.00 in
11:38 75.6 °F 58.3 °F 29.77 in SW 1.0 mph 8.0 mph 55 % 0.00 in
11:43 75.9 °F 57.6 °F 29.77 in South 3.0 mph 8.0 mph 53 % 0.00 in
11:48 76.6 °F 58.8 °F 29.77 in SSE 3.0 mph 8.0 mph 54 % 0.00 in
11:53 77.0 °F 56.3 °F 29.76 in South 2.0 mph 8.0 mph 49 % 0.00 in
11:58 77.5 °F 56.8 °F 29.76 in NNW 2.0 mph 7.0 mph 49 % 0.00 in
12:03 77.9 °F 56.1 °F 29.76 in West 2.0 mph 8.0 mph 47 % 0.00 in
12:08 78.4 °F 57.7 °F 29.76 in SW 2.0 mph 8.0 mph 49 % 0.00 in
12:13 79.0 °F 59.4 °F 29.76 in NW 2.0 mph 8.0 mph 51 % 0.00 in
12:18 79.3 °F 59.0 °F 29.76 in SW 5.0 mph 8.0 mph 50 % 0.00 in
12:24 79.3 °F 56.8 °F 29.75 in SSW 2.0 mph 11.0 mph 46 % 0.00 in
12:29 79.3 °F 57.4 °F 29.75 in SSW 6.0 mph 11.0 mph 47 % 0.00 in
12:34 79.5 °F 58.1 °F 29.75 in SW 3.0 mph 11.0 mph 48 % 0.00 in
12:39 79.5 °F 57.6 °F 29.75 in South 5.0 mph 11.0 mph 47 % 0.00 in
12:44 79.5 °F 58.1 °F 29.75 in SSW 8.0 mph 9.0 mph 48 % 0.00 in
12:49 79.5 °F 57.6 °F 29.75 in WNW 1.0 mph 10.0 mph 47 % 0.00 in
12:50 79.7 °F 57.7 °F 29.75 in NNW 3.0 mph 13.0 mph 47 % 0.00 in
12:55 80.1 °F 58.1 °F 29.75 in SSW 4.0 mph 13.0 mph 47 % 0.00 in
13:00 80.1 °F 58.6 °F 29.75 in South 7.0 mph 13.0 mph 48 % 0.00 in
13:05 80.2 °F 58.1 °F 29.75 in South 1.0 mph 11.0 mph 47 % 0.00 in
13:10 80.8 °F 58.1 °F 29.75 in WSW 5.0 mph 11.0 mph 46 % 0.00 in
13:15 80.8 °F 59.2 °F 29.74 in SW 10.0 mph 11.0 mph 48 % 0.00 in
13:20 80.4 °F 58.3 °F 29.74 in West 3.0 mph 11.0 mph 47 % 0.00 in
13:25 81.0 °F 58.3 °F 29.74 in WNW 2.0 mph 11.0 mph 46 % 0.00 in
13:27 81.3 °F 61.0 °F 29.74 in SSW 5.0 mph 11.0 mph 50 % 0.00 in
13:32 81.3 °F 60.3 °F 29.73 in SW 2.0 mph 11.0 mph 49 % 0.00 in
13:37 81.9 °F 60.3 °F 29.73 in SSW 6.0 mph 9.0 mph 48 % 0.00 in
13:42 82.0 °F 61.5 °F 29.73 in SSW 3.0 mph 10.0 mph 50 % 0.00 in
13:47 81.9 °F 61.3 °F 29.73 in SSW 2.0 mph 10.0 mph 50 % 0.00 in
13:52 82.0 °F 60.4 °F 29.73 in WSW 3.0 mph 10.0 mph 48 % 0.00 in
13:57 82.4 °F 57.7 °F 29.73 in NW 2.0 mph 10.0 mph 43 % 0.00 in
14:02 82.8 °F 60.4 °F 29.72 in SSW 5.0 mph 10.0 mph 47 % 0.00 in
14:07 82.9 °F 59.4 °F 29.72 in SSW 3.0 mph 7.0 mph 45 % 0.00 in
14:12 83.1 °F 60.8 °F 29.72 in SSW 1.0 mph 8.0 mph 47 % 0.00 in
14:17 82.9 °F 60.6 °F 29.71 in South 2.0 mph 8.0 mph 47 % 0.00 in
14:22 83.1 °F 60.3 °F 29.71 in WSW 4.0 mph 8.0 mph 46 % 0.00 in
14:27 83.5 °F 59.9 °F 29.71 in SSW 1.0 mph 10.0 mph 45 % 0.00 in
14:32 83.7 °F 58.1 °F 29.70 in SSW 4.0 mph 10.0 mph 42 % 0.00 in
14:38 84.0 °F 59.7 °F 29.70 in WSW 4.0 mph 10.0 mph 44 % 0.00 in
14:43 83.8 °F 58.3 °F 29.70 in SSE 3.0 mph 8.0 mph 42 % 0.00 in
14:47 84.0 °F 59.2 °F 29.70 in West 1.0 mph 8.0 mph 43 % 0.00 in
14:53 84.0 °F 56.5 °F 29.69 in SSW 5.0 mph 9.0 mph 39 % 0.00 in
14:58 84.4 °F 59.4 °F 29.69 in South 6.0 mph 9.0 mph 43 % 0.00 in
15:03 84.4 °F 60.1 °F 29.69 in Calm   9.0 mph 44 % 0.00 in
15:08 84.9 °F 55.8 °F 29.69 in NW 5.0 mph 8.0 mph 37 % 0.00 in
15:13 85.1 °F 56.7 °F 29.68 in SSE 2.0 mph 10.0 mph 38 % 0.00 in
15:18 84.7 °F 57.0 °F 29.69 in East 3.0 mph 15.0 mph 39 % 0.00 in
15:23 84.7 °F 57.0 °F 29.68 in SW 8.0 mph 15.0 mph 39 % 0.00 in
15:28 84.9 °F 56.5 °F 29.68 in SW 3.0 mph 15.0 mph 38 % 0.00 in
15:33 84.9 °F 56.5 °F 29.68 in SW 6.0 mph 10.0 mph 38 % 0.00 in
15:38 84.7 °F 55.6 °F 29.68 in WSW 2.0 mph 10.0 mph 37 % 0.00 in
15:43 84.9 °F 55.0 °F 29.68 in South 4.0 mph 12.0 mph 36 % 0.00 in
15:48 85.3 °F 56.8 °F 29.68 in SSW 2.0 mph 12.0 mph 38 % 0.00 in
15:53 85.6 °F 57.9 °F 29.68 in SW 3.0 mph 12.0 mph 39 % 0.00 in
15:58 85.3 °F 59.0 °F 29.68 in SSW 2.0 mph 10.0 mph 41 % 0.00 in
16:03 84.7 °F 55.6 °F 29.68 in SSW 3.0 mph 13.0 mph 37 % 0.00 in
16:08 84.7 °F 56.3 °F 29.67 in SSW 1.0 mph 13.0 mph 38 % 0.00 in
16:13 85.3 °F 58.3 °F 29.67 in SW 2.0 mph 13.0 mph 40 % 0.00 in
16:18 85.5 °F 57.0 °F 29.67 in SSW 3.0 mph 12.0 mph 38 % 0.00 in
16:23 85.6 °F 57.9 °F 29.67 in ESE 4.0 mph 8.0 mph 39 % 0.00 in
16:28 85.6 °F 57.2 °F 29.67 in South 3.0 mph 7.0 mph 38 % 0.00 in
16:33 85.5 °F 56.3 °F 29.67 in SSW 1.0 mph 10.0 mph 37 % 0.00 in
16:38 85.5 °F 57.0 °F 29.67 in SW 2.0 mph 10.0 mph 38 % 0.00 in
16:43 85.5 °F 57.7 °F 29.67 in South 3.0 mph 10.0 mph 39 % 0.00 in
16:48 85.6 °F 56.3 °F 29.67 in SW 3.0 mph 9.0 mph 37 % 0.00 in
16:53 85.8 °F 57.9 °F 29.67 in South 4.0 mph 9.0 mph 39 % 0.00 in
16:58 85.6 °F 55.6 °F 29.67 in SW 4.0 mph 8.0 mph 36 % 0.00 in
17:03 85.3 °F 55.2 °F 29.67 in SW 5.0 mph 11.0 mph 36 % 0.00 in
17:08 85.5 °F 57.0 °F 29.67 in WSW 2.0 mph 11.0 mph 38 % 0.00 in
17:13 85.5 °F 56.3 °F 29.67 in SSW 3.0 mph 11.0 mph 37 % 0.00 in
17:18 85.5 °F 57.7 °F 29.67 in SSW 2.0 mph 9.0 mph 39 % 0.00 in
17:23 85.3 °F 54.5 °F 29.67 in SW 2.0 mph 9.0 mph 35 % 0.00 in
17:28 85.5 °F 55.4 °F 29.67 in West 2.0 mph 9.0 mph 36 % 0.00 in
17:33 85.6 °F 56.3 °F 29.67 in Calm   8.0 mph 37 % 0.00 in
17:38 85.8 °F 57.2 °F 29.67 in South 1.0 mph 8.0 mph 38 % 0.00 in
17:43 85.3 °F 56.1 °F 29.67 in SSW 4.0 mph 12.0 mph 37 % 0.00 in
17:48 84.9 °F 55.8 °F 29.67 in SW 1.0 mph 12.0 mph 37 % 0.00 in
17:53 85.3 °F 56.8 °F 29.67 in WSW 2.0 mph 12.0 mph 38 % 0.00 in
17:58 85.1 °F 56.7 °F 29.67 in South 1.0 mph 8.0 mph 38 % 0.00 in
18:03 84.9 °F 55.8 °F 29.67 in SSE 3.0 mph 8.0 mph 37 % 0.00 in
18:08 84.9 °F 56.5 °F 29.67 in SSW 3.0 mph 8.0 mph 38 % 0.00 in
18:13 84.7 °F 57.0 °F 29.67 in SW 5.0 mph 8.0 mph 39 % 0.00 in
18:18 84.0 °F 56.5 °F 29.67 in SSW 3.0 mph 9.0 mph 39 % 0.00 in
18:23 83.8 °F 57.0 °F 29.67 in ESE 6.0 mph 10.0 mph 40 % 0.00 in
18:28 83.7 °F 56.1 °F 29.67 in SW 2.0 mph 13.0 mph 39 % 0.00 in
18:33 83.7 °F 56.8 °F 29.67 in NNW 4.0 mph 13.0 mph 40 % 0.00 in
18:38 83.7 °F 56.8 °F 29.67 in SSW 1.0 mph 13.0 mph 40 % 0.00 in
18:43 83.7 °F 56.1 °F 29.67 in WSW 3.0 mph 9.0 mph 39 % 0.00 in
18:48 83.5 °F 55.9 °F 29.67 in SSW 4.0 mph 9.0 mph 39 % 0.00 in
18:53 83.1 °F 57.0 °F 29.68 in SW 2.0 mph 9.0 mph 41 % 0.00 in
18:58 83.1 °F 56.3 °F 29.68 in Calm   9.0 mph 40 % 0.00 in
19:03 83.3 °F 56.5 °F 29.68 in NW 1.0 mph 9.0 mph 40 % 0.00 in
19:08 83.3 °F 57.2 °F 29.68 in SSW 2.0 mph 5.0 mph 41 % 0.00 in
19:13 82.9 °F 56.8 °F 29.68 in Calm   4.0 mph 41 % 0.00 in
19:18 82.6 °F 56.5 °F 29.68 in SSW 1.0 mph 5.0 mph 41 % 0.00 in
19:23 82.2 °F 56.1 °F 29.68 in SSW 1.0 mph 5.0 mph 41 % 0.00 in
19:28 82.0 °F 56.7 °F 29.68 in Calm   5.0 mph 42 % 0.00 in
19:33 81.1 °F 56.5 °F 29.68 in Calm   4.0 mph 43 % 0.00 in
19:38 80.2 °F 56.3 °F 29.68 in Calm   1.0 mph 44 % 0.00 in
19:43 79.3 °F 56.1 °F 29.68 in Calm   1.0 mph 45 % 0.00 in
19:48 78.6 °F 56.1 °F 29.68 in Calm   1.0 mph 46 % 0.00 in
19:53 78.1 °F 56.3 °F 29.68 in Calm   1.0 mph 47 % 0.00 in
19:58 77.4 °F 56.1 °F 29.68 in Calm   1.0 mph 48 % 0.00 in
20:03 76.8 °F 56.3 °F 29.68 in Calm   2.0 mph 49 % 0.00 in
20:08 76.1 °F 56.7 °F 29.68 in Calm   2.0 mph 51 % 0.00 in
20:13 75.6 °F 57.7 °F 29.68 in Calm   2.0 mph 54 % 0.00 in
20:18 74.8 °F 57.0 °F 29.68 in Calm     54 % 0.00 in
20:23 74.3 °F 57.0 °F 29.68 in Calm     55 % 0.00 in
20:28 73.9 °F 57.2 °F 29.68 in Calm     56 % 0.00 in
20:33 73.4 °F 57.2 °F 29.69 in Calm     57 % 0.00 in
20:38 72.7 °F 56.5 °F 29.69 in Calm     57 % 0.00 in
20:43 72.1 °F 56.5 °F 29.69 in Calm     58 % 0.00 in
20:48 71.4 °F 56.3 °F 29.69 in Calm     59 % 0.00 in
20:52 71.1 °F 56.5 °F 29.69 in Calm     60 % 0.00 in
20:57 70.7 °F 56.7 °F 29.69 in Calm     61 % 0.00 in
21:02 70.3 °F 57.2 °F 29.70 in Calm     63 % 0.00 in
21:07 70.0 °F 58.1 °F 29.69 in Calm     66 % 0.00 in
21:12 70.3 °F 58.5 °F 29.70 in Calm     66 % 0.00 in
21:17 70.3 °F 58.1 °F 29.70 in Calm     65 % 0.00 in
21:22 70.0 °F 57.7 °F 29.70 in Calm     65 % 0.00 in
21:27 69.4 °F 57.9 °F 29.70 in Calm     67 % 0.00 in
21:32 69.1 °F 58.1 °F 29.71 in Calm     68 % 0.00 in
21:37 69.1 °F 58.5 °F 29.71 in Calm     69 % 0.00 in
21:42 69.1 °F 58.5 °F 29.71 in Calm     69 % 0.00 in
21:47 68.7 °F 58.5 °F 29.71 in Calm     70 % 0.00 in
21:52 68.5 °F 58.8 °F 29.71 in Calm     71 % 0.00 in
21:57 68.4 °F 58.6 °F 29.72 in South 1.0 mph   71 % 0.00 in
22:02 68.4 °F 59.4 °F 29.72 in SSE 2.0 mph 2.0 mph 73 % 0.00 in
22:07 68.7 °F 59.0 °F 29.72 in SSW 2.0 mph 3.0 mph 71 % 0.00 in
22:12 69.4 °F 59.2 °F 29.72 in SE 2.0 mph 3.0 mph 70 % 0.00 in
22:17 70.0 °F 59.4 °F 29.73 in SSW 2.0 mph 3.0 mph 69 % 0.00 in
22:22 70.5 °F 59.9 °F 29.73 in SSW 2.0 mph 4.0 mph 69 % 0.00 in
22:27 70.9 °F 60.6 °F 29.73 in SSW 2.0 mph 4.0 mph 70 % 0.00 in
22:32 71.1 °F 60.8 °F 29.73 in SSE 2.0 mph 5.0 mph 70 % 0.00 in
22:37 71.2 °F 61.3 °F 29.73 in SE 1.0 mph 5.0 mph 71 % 0.00 in
22:42 71.2 °F 61.3 °F 29.73 in SSE 1.0 mph 5.0 mph 71 % 0.00 in
22:47 71.1 °F 61.2 °F 29.74 in Calm   4.0 mph 71 % 0.00 in
22:52 70.9 °F 61.0 °F 29.74 in Calm   4.0 mph 71 % 0.00 in
22:57 70.3 °F 60.8 °F 29.74 in Calm   2.0 mph 72 % 0.00 in
23:02 70.0 °F 61.0 °F 29.73 in Calm     73 % 0.00 in
23:07 69.6 °F 61.0 °F 29.73 in Calm     74 % 0.00 in
23:12 69.3 °F 60.6 °F 29.73 in Calm     74 % 0.00 in
23:17 68.7 °F 60.4 °F 29.74 in Calm     75 % 0.00 in
23:22 68.2 °F 60.3 °F 29.73 in Calm     76 % 0.00 in
23:23 68.2 °F 60.3 °F 29.73 in Calm     76 % 0.00 in
23:28 67.6 °F 60.3 °F 29.73 in Calm     77 % 0.00 in
23:33 67.3 °F 60.6 °F 29.73 in Calm     79 % 0.00 in
23:38 66.9 °F 60.6 °F 29.73 in Calm     80 % 0.00 in
23:40 66.9 °F 60.6 °F 29.73 in Calm     80 % 0.00 in
23:45 66.6 °F 60.6 °F 29.73 in Calm     81 % 0.00 in
23:50 66.2 °F 60.6 °F 29.73 in Calm     82 % 0.00 in
23:55 65.8 °F 60.6 °F 29.74 in Calm     83 % 0.00 in
23:59 65.7 °F 60.1 °F 29.74 in Calm     82 % 0.00 in
Spring, Texas: Villages of Bridgestone
Compliments of Weather Underground - 2.75 mb

Script developed by  Jim McMurry - jmcmurry@mwt.net Adapted for the template by  Wim van der Kuil - Leuven-Template.eu

You find our weather info also at:

UK Metoffice

WeatherCloud

Weather Underground

Mid-South Weather Network

AWEKAS

Citizen Weather Observer Program (CWOP)

HAMweather, WeatherForYou, PWS Weather

Equipment we use:

Weather-station
Davis Vantage Vue

Weather-program
Meteohub

Weather-server
Debian 7.9 x86 (Guest)

Provider
DreamHost

Davis Vantage Vue

Meteohub

Debian 7.9 x86 (Guest)

DreamHost